Station Historical Data
Daily Summary for December 18, 2017 Units:  English    Metric   Both
« Previous Day
Next Day »
Daily Weekly Monthly Yearly Custom
  High: Low: Average:
Temperature: TemperatureF °F 25.1 °F 35.4 °F
Dew Point: DewpointF °F 20.1 °F 32.1 °F
Humidity: Humidity% 81% 87%
Wind Speed: WindSpeedMPHmph 0.0mph 4.1mph
Wind Gust: WindSpeedGustMPHmph - -
Wind- - SW
Pressure: PressureIn in 29.84 in -
Precipitation: 0.00 in    
Historical Graphs
 
 
Tabular Data for December 18, 2017
Time Temperature Dew Point Pressure Wind Wind Speed Wind Gust Humidity Rainfall Rate (Hourly)
TemperatureF °F DewpointF °F PressureIn in Calm     Humidity% HourlyPrecipIn in
00:04 25.1 °F 20.1 °F 30.09 in Calm     81% 0.00 in
00:09 25.2 °F 20.2 °F 30.09 in Calm     81% 0.00 in
00:14 25.2 °F 20.2 °F 30.09 in Calm     81% 0.00 in
00:19 25.2 °F 20.2 °F 30.09 in Calm     81% 0.00 in
00:20 25.2 °F 20.2 °F 30.09 in Calm     81% 0.00 in
00:24 25.2 °F 20.2 °F 30.08 in Calm     81% 0.00 in
00:29 25.2 °F 20.2 °F 30.09 in Calm     81% 0.00 in
00:34 25.2 °F 20.2 °F 30.08 in Calm     81% 0.00 in
00:39 25.3 °F 20.3 °F 30.08 in Calm     81% 0.00 in
00:44 25.2 °F 20.2 °F 30.08 in Calm     81% 0.00 in
00:49 25.2 °F 20.2 °F 30.08 in Calm     81% 0.00 in
00:54 25.2 °F 20.2 °F 30.08 in Calm     81% 0.00 in
00:59 25.3 °F 20.3 °F 30.08 in Calm     81% 0.00 in
01:04 25.3 °F 20.3 °F 30.08 in Calm     81% 0.00 in
01:09 25.3 °F 20.3 °F 30.07 in Calm     81% 0.00 in
01:14 25.4 °F 20.4 °F 30.07 in Calm     81% 0.00 in
01:19 25.4 °F 20.4 °F 30.07 in Calm     81% 0.00 in
01:24 25.5 °F 20.5 °F 30.07 in Calm     81% 0.00 in
01:29 25.6 °F 20.6 °F 30.07 in Calm     81% 0.00 in
01:34 25.6 °F 20.6 °F 30.06 in Calm     81% 0.00 in
01:39 25.7 °F 20.7 °F 30.06 in Calm   3.0 mph 81% 0.00 in
01:44 25.8 °F 20.8 °F 30.06 in East 1.0 mph 3.0 mph 81% 0.00 in
01:49 25.8 °F 21.1 °F 30.06 in Calm     82% 0.00 in
01:54 25.9 °F 21.2 °F 30.06 in Calm     82% 0.00 in
01:59 25.9 °F 21.2 °F 30.06 in Calm     82% 0.00 in
02:04 26.0 °F 21.3 °F 30.06 in Calm     82% 0.00 in
02:09 26.0 °F 21.3 °F 30.06 in Calm     82% 0.00 in
02:14 26.2 °F 21.5 °F 30.06 in Calm     82% 0.00 in
02:19 26.3 °F 21.6 °F 30.06 in Calm     82% 0.00 in
02:24 26.5 °F 21.7 °F 30.05 in Calm     82% 0.00 in
02:29 26.6 °F 21.8 °F 30.05 in Calm     82% 0.00 in
02:34 26.8 °F 22.3 °F 30.06 in Calm     83% 0.00 in
02:39 26.9 °F 22.4 °F 30.06 in Calm     83% 0.00 in
02:44 27.0 °F 22.5 °F 30.06 in Calm     83% 0.00 in
02:49 27.0 °F 22.5 °F 30.05 in Calm     83% 0.00 in
02:54 27.2 °F 22.7 °F 30.06 in Calm     83% 0.00 in
02:59 27.3 °F 22.8 °F 30.06 in Calm   1.0 mph 83% 0.00 in
03:04 27.5 °F 23.0 °F 30.06 in Calm     83% 0.00 in
03:09 27.7 °F 23.2 °F 30.06 in Calm   4.0 mph 83% 0.00 in
03:14 27.8 °F 23.3 °F 30.06 in Calm     83% 0.00 in
03:19 27.9 °F 23.4 °F 30.06 in Calm   2.0 mph 83% 0.00 in
03:24 27.9 °F 23.4 °F 30.06 in Calm   2.0 mph 83% 0.00 in
03:29 28.0 °F 23.5 °F 30.06 in Calm     83% 0.00 in
03:34 28.0 °F 23.5 °F 30.05 in Calm     83% 0.00 in
03:39 27.9 °F 23.4 °F 30.05 in Calm     83% 0.00 in
03:44 28.0 °F 23.5 °F 30.05 in Calm     83% 0.00 in
03:49 28.0 °F 23.5 °F 30.05 in Calm     83% 0.00 in
03:54 28.0 °F 23.5 °F 30.04 in Calm     83% 0.00 in
03:59 28.1 °F 23.6 °F 30.04 in Calm     83% 0.00 in
04:04 28.1 °F 23.6 °F 30.04 in Calm     83% 0.00 in
04:09 28.2 °F 23.7 °F 30.04 in Calm     83% 0.00 in
04:19 28.3 °F 23.8 °F 30.03 in Calm     83% 0.00 in
04:20 28.3 °F 23.8 °F 30.03 in Calm     83% 0.00 in
04:29 28.5 °F 24.0 °F 30.03 in Calm     83% 0.00 in
04:34 28.7 °F 24.5 °F 30.02 in Calm     84% 0.00 in
04:39 28.8 °F 24.6 °F 30.02 in Calm     84% 0.00 in
04:44 28.9 °F 24.7 °F 30.02 in Calm     84% 0.00 in
04:49 29.1 °F 24.9 °F 30.02 in Calm     84% 0.00 in
04:54 29.1 °F 24.9 °F 30.02 in Calm     84% 0.00 in
04:59 29.3 °F 25.1 °F 30.02 in Calm     84% 0.00 in
05:04 29.3 °F 25.1 °F 30.02 in Calm     84% 0.00 in
05:09 29.4 °F 25.2 °F 30.02 in Calm     84% 0.00 in
05:14 29.5 °F 25.3 °F 30.02 in Calm     84% 0.00 in
05:19 29.6 °F 25.4 °F 30.02 in Calm     84% 0.00 in
05:24 29.7 °F 25.5 °F 30.02 in Calm     84% 0.00 in
05:30 29.8 °F 25.8 °F 30.02 in Calm     85% 0.00 in
05:39 30.1 °F 26.1 °F 30.02 in Calm   1.0 mph 85% 0.00 in
05:44 30.3 °F 26.3 °F 30.02 in Calm   3.0 mph 85% 0.00 in
05:49 30.5 °F 26.5 °F 30.02 in Calm     85% 0.00 in
05:54 30.8 °F 27.1 °F 30.02 in South 2.0 mph 4.0 mph 86% 0.00 in
05:59 31.2 °F 27.5 °F 30.02 in Calm   3.0 mph 86% 0.00 in
06:04 31.6 °F 27.9 °F 30.02 in South 1.0 mph 4.0 mph 86% 0.00 in
06:09 32.1 °F 28.7 °F 30.02 in SSW 2.0 mph 4.0 mph 87% 0.00 in
06:14 32.6 °F 29.2 °F 30.01 in SW 2.0 mph 4.0 mph 87% 0.00 in
06:19 33.3 °F 30.1 °F 30.01 in SSW 1.0 mph 5.0 mph 88% 0.00 in
06:24 33.7 °F 30.5 °F 30.01 in Calm   6.0 mph 88% 0.00 in
06:29 34.2 °F 31.0 °F 30.01 in SSW 3.0 mph 6.0 mph 88% 0.00 in
06:34 34.6 °F 31.4 °F 30.01 in SW 2.0 mph 7.0 mph 88% 0.00 in
06:39 35.1 °F 31.9 °F 30.01 in SSW 3.0 mph 8.0 mph 88% 0.00 in
06:44 35.5 °F 32.3 °F 30.00 in SSW 4.0 mph 8.0 mph 88% 0.00 in
06:54 35.9 °F 32.7 °F 30.00 in SSW 4.0 mph 6.0 mph 88% 0.00 in
06:59 36.2 °F 33.0 °F 30.01 in SW 2.0 mph 9.0 mph 88% 0.01 in
07:04 36.3 °F 33.1 °F 30.01 in WSW 3.0 mph 6.0 mph 88% 0.01 in
07:09 36.4 °F 33.2 °F 30.01 in SSW 3.0 mph 7.0 mph 88% 0.01 in
07:14 36.4 °F 32.9 °F 30.00 in SSW 3.0 mph 7.0 mph 87% 0.01 in
07:19 36.6 °F 33.1 °F 30.00 in WSW 2.0 mph 7.0 mph 87% 0.01 in
07:24 36.6 °F 33.1 °F 30.00 in SSW 3.0 mph 8.0 mph 87% 0.01 in
07:29 36.6 °F 33.1 °F 30.00 in SSW 4.0 mph 7.0 mph 87% 0.01 in
07:34 36.7 °F 33.2 °F 30.00 in SSW 2.0 mph 5.0 mph 87% 0.01 in
07:39 36.7 °F 33.2 °F 29.99 in SSW 3.0 mph 7.0 mph 87% 0.01 in
07:44 36.7 °F 33.2 °F 30.00 in SSW 3.0 mph 8.0 mph 87% 0.01 in
07:49 36.7 °F 33.2 °F 30.00 in SSW 3.0 mph 8.0 mph 87% 0.01 in
07:54 36.7 °F 32.9 °F 29.99 in SSW 3.0 mph 6.0 mph 86% 0.01 in
07:59 36.8 °F 33.0 °F 30.00 in SSW 3.0 mph 5.0 mph 86% 0.00 in
08:04 36.8 °F 33.0 °F 30.00 in SSW 2.0 mph 7.0 mph 86% 0.00 in
08:09 36.9 °F 33.1 °F 30.00 in SSW 3.0 mph 7.0 mph 86% 0.00 in
08:14 36.9 °F 33.1 °F 29.99 in SSW 3.0 mph 7.0 mph 86% 0.00 in
08:15 36.9 °F 33.1 °F 29.99 in South 3.0 mph 7.0 mph 86% 0.00 in
08:24 37.0 °F 33.2 °F 29.99 in SSW 4.0 mph 7.0 mph 86% 0.00 in
08:29 37.1 °F 33.3 °F 29.99 in SSW 2.0 mph 6.0 mph 86% 0.00 in
08:34 37.2 °F 33.4 °F 29.99 in SW 2.0 mph 7.0 mph 86% 0.00 in
08:39 37.3 °F 33.5 °F 29.99 in South 6.0 mph 7.0 mph 86% 0.00 in
08:44 37.4 °F 33.3 °F 29.99 in SW 7.0 mph 9.0 mph 85% 0.00 in
08:49 37.5 °F 33.4 °F 29.99 in SSW 4.0 mph 12.0 mph 85% 0.00 in
08:54 37.5 °F 33.4 °F 29.99 in SW 5.0 mph 12.0 mph 85% 0.00 in
08:59 37.6 °F 33.5 °F 29.99 in SW 5.0 mph 10.0 mph 85% 0.00 in
09:04 37.6 °F 33.5 °F 29.99 in SW 4.0 mph 9.0 mph 85% 0.00 in
09:09 37.6 °F 33.5 °F 29.99 in SSW 4.0 mph 8.0 mph 85% 0.00 in
09:14 37.6 °F 33.8 °F 29.99 in SSW 7.0 mph 9.0 mph 86% 0.00 in
09:19 37.5 °F 33.7 °F 30.00 in SW 2.0 mph 7.0 mph 86% 0.00 in
09:24 37.5 °F 33.7 °F 30.00 in SSW 3.0 mph 8.0 mph 86% 0.00 in
09:25 37.5 °F 33.7 °F 30.00 in SW 4.0 mph 8.0 mph 86% 0.00 in
09:34 37.5 °F 33.7 °F 29.99 in South 3.0 mph 7.0 mph 86% 0.00 in
09:39 37.4 °F 33.6 °F 29.99 in WSW 5.0 mph 8.0 mph 86% 0.00 in
09:44 37.4 °F 33.9 °F 29.99 in SW 2.0 mph 5.0 mph 87% 0.00 in
09:49 37.5 °F 34.0 °F 29.99 in SSW 4.0 mph 8.0 mph 87% 0.00 in
09:54 37.6 °F 34.1 °F 29.99 in SSW 3.0 mph 8.0 mph 87% 0.00 in
09:59 37.6 °F 34.1 °F 29.99 in SSW 3.0 mph 7.0 mph 87% 0.00 in
10:04 37.6 °F 34.1 °F 29.99 in SW 3.0 mph 9.0 mph 87% 0.00 in
10:09 37.6 °F 34.1 °F 29.99 in SW 4.0 mph 9.0 mph 87% 0.00 in
10:14 37.7 °F 34.5 °F 30.00 in SW 3.0 mph 7.0 mph 88% 0.00 in
10:15 37.7 °F 34.5 °F 30.00 in SW 4.0 mph 9.0 mph 88% 0.00 in
10:19 37.7 °F 34.5 °F 30.00 in SW 4.0 mph 7.0 mph 88% 0.00 in
10:24 37.7 °F 34.5 °F 30.00 in SW 2.0 mph 8.0 mph 88% 0.00 in
10:29 37.7 °F 34.5 °F 29.99 in SW 4.0 mph 9.0 mph 88% 0.00 in
10:34 37.8 °F 34.6 °F 29.99 in SW 4.0 mph 9.0 mph 88% 0.00 in
10:44 37.9 °F 34.7 °F 29.98 in SW 4.0 mph 10.0 mph 88% 0.00 in
10:49 37.9 °F 34.7 °F 29.98 in SSW 1.0 mph 10.0 mph 88% 0.00 in
10:54 37.9 °F 34.7 °F 29.98 in SW 2.0 mph 9.0 mph 88% 0.00 in
10:59 38.0 °F 34.8 °F 29.97 in WSW 4.0 mph 14.0 mph 88% 0.00 in
11:04 38.0 °F 34.8 °F 29.97 in SW 6.0 mph 14.0 mph 88% 0.02 in
11:09 38.1 °F 34.9 °F 29.97 in SW 6.0 mph 13.0 mph 88% 0.02 in
11:14 38.2 °F 35.0 °F 29.97 in WSW 6.0 mph 15.0 mph 88% 0.04 in
11:19 38.2 °F 35.0 °F 29.97 in South 3.0 mph 11.0 mph 88% 0.04 in
11:24 38.2 °F 35.0 °F 29.96 in SSW 9.0 mph 12.0 mph 88% 0.06 in
11:29 38.2 °F 35.0 °F 29.96 in SW 8.0 mph 18.0 mph 88% 0.08 in
11:34 38.2 °F 35.0 °F 29.96 in SW 7.0 mph 18.0 mph 88% 0.08 in
11:39 38.2 °F 35.0 °F 29.95 in SW 6.0 mph 16.0 mph 88% 0.10 in
11:44 38.2 °F 35.0 °F 29.95 in SW 6.0 mph 11.0 mph 88% 0.12 in
11:49 38.2 °F 35.0 °F 29.95 in SW 6.0 mph 13.0 mph 88% 0.12 in
11:54 38.3 °F 35.1 °F 29.95 in SW 6.0 mph 13.0 mph 88% 0.14 in
11:59 38.3 °F 35.1 °F 29.94 in WSW 9.0 mph 13.0 mph 88% 0.14 in
12:04 38.4 °F 34.9 °F 29.94 in SSW 7.0 mph 13.0 mph 87% 0.13 in
12:09 38.4 °F 34.9 °F 29.94 in SW 6.0 mph 13.0 mph 87% 0.14 in
12:14 38.4 °F 34.9 °F 29.94 in SW 6.0 mph 13.0 mph 87% 0.12 in
12:19 38.5 °F 35.0 °F 29.93 in South 3.0 mph 13.0 mph 87% 0.14 in
12:24 38.5 °F 35.0 °F 29.93 in SW 6.0 mph 13.0 mph 87% 0.12 in
12:29 38.6 °F 35.1 °F 29.92 in SW 3.0 mph 16.0 mph 87% 0.10 in
12:34 38.5 °F 35.0 °F 29.92 in SW 7.0 mph 15.0 mph 87% 0.11 in
12:39 38.5 °F 35.0 °F 29.92 in SW 7.0 mph 15.0 mph 87% 0.10 in
12:44 38.4 °F 34.9 °F 29.92 in SW 6.0 mph 15.0 mph 87% 0.08 in
12:49 38.3 °F 34.8 °F 29.92 in SW 7.0 mph 12.0 mph 87% 0.08 in
12:54 38.3 °F 34.8 °F 29.91 in WSW 5.0 mph 11.0 mph 87% 0.08 in
12:59 38.3 °F 35.1 °F 29.91 in South 8.0 mph 14.0 mph 88% 0.08 in
13:04 38.3 °F 35.1 °F 29.91 in SSW 4.0 mph 9.0 mph 88% 0.07 in
13:09 38.3 °F 35.1 °F 29.90 in WSW 7.0 mph 11.0 mph 88% 0.06 in
13:14 38.2 °F 35.0 °F 29.91 in SW 5.0 mph 11.0 mph 88% 0.06 in
13:19 38.2 °F 35.0 °F 29.90 in SSW 5.0 mph 9.0 mph 88% 0.05 in
13:24 38.2 °F 35.0 °F 29.90 in SW 5.0 mph 12.0 mph 88% 0.05 in
13:29 38.2 °F 35.0 °F 29.90 in SSW 7.0 mph 15.0 mph 88% 0.05 in
13:34 38.3 °F 35.1 °F 29.90 in South 8.0 mph 11.0 mph 88% 0.05 in
13:39 38.3 °F 35.1 °F 29.90 in SW 5.0 mph 9.0 mph 88% 0.05 in
13:44 38.3 °F 35.1 °F 29.90 in WSW 3.0 mph 8.0 mph 88% 0.05 in
13:49 38.3 °F 35.1 °F 29.90 in SW 5.0 mph 12.0 mph 88% 0.05 in
13:54 38.2 °F 35.0 °F 29.89 in SW 5.0 mph 12.0 mph 88% 0.04 in
13:59 38.3 °F 35.1 °F 29.90 in SW 6.0 mph 12.0 mph 88% 0.04 in
14:04 38.3 °F 35.1 °F 29.89 in SW 6.0 mph 12.0 mph 88% 0.05 in
14:09 38.3 °F 35.1 °F 29.89 in SW 6.0 mph 12.0 mph 88% 0.05 in
14:14 38.2 °F 35.0 °F 29.89 in SSW 3.0 mph 8.0 mph 88% 0.05 in
14:19 38.2 °F 35.0 °F 29.89 in SW 6.0 mph 13.0 mph 88% 0.05 in
14:24 38.2 °F 35.0 °F 29.89 in SW 5.0 mph 13.0 mph 88% 0.05 in
14:29 38.1 °F 34.9 °F 29.89 in SSW 4.0 mph 9.0 mph 88% 0.05 in
14:39 38.0 °F 34.8 °F 29.88 in SSW 2.0 mph 8.0 mph 88% 0.04 in
14:44 38.1 °F 34.9 °F 29.88 in SW 2.0 mph 10.0 mph 88% 0.04 in
14:49 38.1 °F 34.9 °F 29.88 in WSW 6.0 mph 8.0 mph 88% 0.05 in
14:54 38.1 °F 34.9 °F 29.88 in SSW 2.0 mph 9.0 mph 88% 0.04 in
14:55 38.1 °F 34.9 °F 29.88 in SW 4.0 mph 9.0 mph 88% 0.04 in
15:04 38.0 °F 34.8 °F 29.88 in SSW 5.0 mph 10.0 mph 88% 0.04 in
15:09 38.0 °F 34.8 °F 29.88 in SSW 4.0 mph 9.0 mph 88% 0.04 in
15:14 38.0 °F 34.8 °F 29.88 in SW 5.0 mph 7.0 mph 88% 0.05 in
15:19 37.9 °F 34.7 °F 29.88 in SW 2.0 mph 10.0 mph 88% 0.04 in
15:24 37.9 °F 34.7 °F 29.88 in SW 6.0 mph 12.0 mph 88% 0.05 in
15:29 37.8 °F 34.6 °F 29.88 in SSW 4.0 mph 12.0 mph 88% 0.05 in
15:34 37.9 °F 34.7 °F 29.88 in SSW 4.0 mph 10.0 mph 88% 0.04 in
15:39 37.9 °F 34.9 °F 29.89 in SW 4.0 mph 10.0 mph 89% 0.05 in
15:44 37.9 °F 34.9 °F 29.89 in SW 5.0 mph 12.0 mph 89% 0.05 in
15:54 38.0 °F 35.0 °F 29.88 in SW 5.0 mph 13.0 mph 89% 0.05 in
15:59 38.0 °F 35.0 °F 29.88 in SW 5.0 mph 11.0 mph 89% 0.05 in
16:04 38.0 °F 35.0 °F 29.89 in SSW 5.0 mph 12.0 mph 89% 0.05 in
16:09 38.0 °F 35.0 °F 29.89 in SW 9.0 mph 13.0 mph 89% 0.06 in
16:14 38.1 °F 35.1 °F 29.89 in SSW 7.0 mph 11.0 mph 89% 0.05 in
16:19 38.2 °F 35.2 °F 29.88 in SW 8.0 mph 14.0 mph 89% 0.05 in
16:29 38.2 °F 35.2 °F 29.88 in SSW 6.0 mph 15.0 mph 89% 0.05 in
16:34 38.3 °F 35.3 °F 29.89 in WSW 6.0 mph 13.0 mph 89% 0.06 in
16:39 38.3 °F 35.3 °F 29.88 in SW 6.0 mph 13.0 mph 89% 0.05 in
16:44 38.2 °F 35.2 °F 29.88 in SSW 3.0 mph 15.0 mph 89% 0.06 in
16:49 38.2 °F 35.2 °F 29.88 in SW 5.0 mph 15.0 mph 89% 0.05 in
16:54 38.2 °F 35.2 °F 29.88 in SW 5.0 mph 13.0 mph 89% 0.06 in
16:59 38.2 °F 35.2 °F 29.88 in SW 6.0 mph 15.0 mph 89% 0.05 in
17:04 38.2 °F 35.5 °F 29.88 in SW 7.0 mph 15.0 mph 90% 0.06 in
17:09 38.3 °F 35.6 °F 29.88 in WSW 7.0 mph 17.0 mph 90% 0.05 in
17:14 38.3 °F 35.6 °F 29.88 in SW 7.0 mph 17.0 mph 90% 0.05 in
17:19 38.3 °F 35.6 °F 29.88 in SW 7.0 mph 15.0 mph 90% 0.06 in
17:24 38.4 °F 35.7 °F 29.88 in West 8.0 mph 12.0 mph 90% 0.05 in
17:29 38.4 °F 35.7 °F 29.88 in SW 15.0 mph 15.0 mph 90% 0.05 in
17:34 38.5 °F 35.8 °F 29.88 in WSW 5.0 mph 16.0 mph 90% 0.05 in
17:39 38.5 °F 35.8 °F 29.87 in WSW 10.0 mph 16.0 mph 90% 0.05 in
17:45 38.6 °F 35.9 °F 29.88 in SW 6.0 mph 13.0 mph 90% 0.05 in
17:54 39.0 °F 36.6 °F 29.88 in WSW 8.0 mph 17.0 mph 91% 0.05 in
17:59 39.2 °F 36.8 °F 29.89 in WSW 8.0 mph 17.0 mph 91% 0.06 in
18:04 39.2 °F 36.8 °F 29.89 in WSW 8.0 mph 17.0 mph 91% 0.05 in
18:09 39.3 °F 36.9 °F 29.89 in SW 6.0 mph 16.0 mph 91% 0.06 in
18:14 39.5 °F 37.1 °F 29.89 in WSW 9.0 mph 14.0 mph 91% 0.06 in
18:19 39.6 °F 37.2 °F 29.89 in WSW 10.0 mph 17.0 mph 91% 0.06 in
18:24 39.6 °F 37.2 °F 29.89 in WSW 9.0 mph 19.0 mph 91% 0.06 in
18:29 39.7 °F 37.3 °F 29.89 in WSW 9.0 mph 19.0 mph 91% 0.07 in
18:34 39.7 °F 37.3 °F 29.89 in WSW 10.0 mph 18.0 mph 91% 0.07 in
18:39 39.7 °F 37.3 °F 29.89 in WSW 10.0 mph 18.0 mph 91% 0.07 in
18:44 39.7 °F 37.3 °F 29.89 in WSW 10.0 mph 15.0 mph 91% 0.07 in
18:49 39.7 °F 37.3 °F 29.89 in SW 8.0 mph 18.0 mph 91% 0.07 in
18:50 39.7 °F 37.3 °F 29.89 in WSW 9.0 mph 18.0 mph 91% 0.07 in
18:59 39.7 °F 37.3 °F 29.89 in WSW 8.0 mph 19.0 mph 91% 0.06 in
19:04 39.7 °F 37.3 °F 29.89 in WSW 8.0 mph 19.0 mph 91% 0.06 in
19:09 39.8 °F 37.4 °F 29.89 in WSW 9.0 mph 19.0 mph 91% 0.05 in
19:14 39.8 °F 37.4 °F 29.90 in West 7.0 mph 14.0 mph 91% 0.06 in
19:19 39.7 °F 37.3 °F 29.90 in WSW 6.0 mph 15.0 mph 91% 0.05 in
19:24 39.7 °F 37.3 °F 29.90 in WSW 5.0 mph 11.0 mph 91% 0.05 in
19:29 39.7 °F 37.3 °F 29.90 in WSW 7.0 mph 16.0 mph 91% 0.04 in
19:34 39.7 °F 37.3 °F 29.90 in WSW 7.0 mph 16.0 mph 91% 0.03 in
19:39 39.7 °F 37.3 °F 29.90 in WSW 8.0 mph 14.0 mph 91% 0.04 in
19:44 39.6 °F 37.2 °F 29.90 in WSW 8.0 mph 14.0 mph 91% 0.03 in
19:49 39.7 °F 37.3 °F 29.90 in WSW 8.0 mph 18.0 mph 91% 0.03 in
19:54 39.7 °F 37.3 °F 29.90 in WSW 10.0 mph 14.0 mph 91% 0.02 in
20:04 39.6 °F 37.2 °F 29.89 in WSW 7.0 mph 16.0 mph 91% 0.02 in
20:09 39.7 °F 37.3 °F 29.89 in WSW 7.0 mph 16.0 mph 91% 0.03 in
20:14 39.7 °F 37.3 °F 29.89 in WSW 8.0 mph 11.0 mph 91% 0.02 in
20:19 39.7 °F 37.3 °F 29.89 in WSW 4.0 mph 11.0 mph 91% 0.02 in
20:24 39.6 °F 37.2 °F 29.89 in WSW 5.0 mph 11.0 mph 91% 0.03 in
20:29 39.6 °F 37.5 °F 29.89 in West 5.0 mph 7.0 mph 92% 0.03 in
20:34 39.7 °F 37.6 °F 29.89 in WSW 5.0 mph 12.0 mph 92% 0.04 in
20:39 39.7 °F 37.6 °F 29.89 in WSW 6.0 mph 12.0 mph 92% 0.04 in
20:44 39.7 °F 37.6 °F 29.89 in WSW 5.0 mph 11.0 mph 92% 0.05 in
20:49 39.6 °F 37.5 °F 29.89 in WSW 4.0 mph 9.0 mph 92% 0.06 in
20:54 39.6 °F 37.2 °F 29.89 in WSW 4.0 mph 9.0 mph 91% 0.06 in
20:59 39.6 °F 37.5 °F 29.88 in WSW 5.0 mph 8.0 mph 92% 0.07 in
21:04 39.7 °F 37.6 °F 29.88 in WSW 5.0 mph 10.0 mph 92% 0.08 in
21:09 39.7 °F 37.6 °F 29.88 in SW 3.0 mph 7.0 mph 92% 0.08 in
21:14 39.6 °F 37.5 °F 29.88 in WSW 5.0 mph 11.0 mph 92% 0.08 in
21:19 39.7 °F 37.6 °F 29.87 in WSW 5.0 mph 11.0 mph 92% 0.08 in
21:24 39.7 °F 37.6 °F 29.87 in West 10.0 mph 12.0 mph 92% 0.08 in
21:29 39.8 °F 37.7 °F 29.87 in SW 9.0 mph 11.0 mph 92% 0.08 in
21:34 39.9 °F 37.8 °F 29.87 in West 11.0 mph 11.0 mph 92% 0.08 in
21:39 40.0 °F 37.9 °F 29.87 in WSW 7.0 mph 13.0 mph 92% 0.07 in
21:44 40.1 °F 38.0 °F 29.87 in WSW 7.0 mph 18.0 mph 92% 0.06 in
21:49 40.1 °F 38.0 °F 29.87 in WSW 7.0 mph 18.0 mph 92% 0.05 in
21:54 40.2 °F 38.1 °F 29.87 in WSW 6.0 mph 12.0 mph 92% 0.05 in
21:59 40.2 °F 38.1 °F 29.87 in WSW 6.0 mph 13.0 mph 92% 0.04 in
22:04 40.2 °F 38.1 °F 29.87 in West 4.0 mph 9.0 mph 92% 0.04 in
22:09 40.2 °F 38.1 °F 29.87 in SSW 7.0 mph 11.0 mph 92% 0.03 in
22:15 40.3 °F 38.2 °F 29.87 in WSW 7.0 mph 14.0 mph 92% 0.03 in
22:24 40.5 °F 38.4 °F 29.87 in SW 8.0 mph 14.0 mph 92% 0.02 in
22:29 40.6 °F 38.5 °F 29.87 in WSW 6.0 mph 16.0 mph 92% 0.02 in
22:34 40.6 °F 38.5 °F 29.87 in WSW 7.0 mph 13.0 mph 92% 0.02 in
22:39 40.6 °F 38.5 °F 29.86 in WSW 5.0 mph 13.0 mph 92% 0.02 in
22:44 40.6 °F 38.5 °F 29.86 in West 9.0 mph 15.0 mph 92% 0.02 in
22:45 40.6 °F 38.5 °F 29.86 in WSW 8.0 mph 15.0 mph 92% 0.02 in
22:54 40.6 °F 38.5 °F 29.86 in WSW 8.0 mph 16.0 mph 92% 0.02 in
22:59 40.6 °F 38.5 °F 29.86 in WSW 7.0 mph 16.0 mph 92% 0.02 in
23:04 40.6 °F 38.5 °F 29.86 in WSW 12.0 mph 15.0 mph 92% 0.02 in
23:09 40.7 °F 38.6 °F 29.86 in SW 8.0 mph 15.0 mph 92% 0.02 in
23:14 40.7 °F 38.6 °F 29.85 in SW 5.0 mph 14.0 mph 92% 0.03 in
23:19 40.7 °F 38.6 °F 29.85 in West 7.0 mph 11.0 mph 92% 0.03 in
23:24 40.6 °F 38.5 °F 29.85 in WSW 6.0 mph 13.0 mph 92% 0.03 in
23:25 40.6 °F 38.5 °F 29.85 in WSW 10.0 mph 13.0 mph 92% 0.03 in
23:34 40.6 °F 38.5 °F 29.84 in SW 7.0 mph 16.0 mph 92% 0.03 in
23:39 40.6 °F 38.5 °F 29.85 in WNW 8.0 mph 14.0 mph 92% 0.03 in
23:49 40.6 °F 38.5 °F 29.84 in SW 9.0 mph 17.0 mph 92% 0.03 in
23:54 40.6 °F 38.5 °F 29.85 in West 5.0 mph 18.0 mph 92% 0.03 in
23:59 40.7 °F 38.6 °F 29.85 in WSW 10.0 mph 19.0 mph 92% 0.03 in
Buffalo, New York, USA
Compliments of Weather Underground - 2.25 mb